Rutland, IL (61358)

2:48 AM CST on March 01, 2015 (GMT -0600)
APRSWXNET Minonk IL US | Change Station
CLOSE
Current Station
Personal Weather Station
Location: Woodford, IL
Elevation: 771 ft
Nearby Weather Stations

Elev 771 ft 40.89 °N, 89.03 °W | Updated 43 minutes ago

Overcast
Overcast
19 °F
Feels Like 19 °F
N
2
Wind Variable Wind from ESE
Gusts 4.0 mph

Today
High -- | Low -- °F
--% Chance of Precip.
Yesterday
High -- | Low -- °F
Precip. -- in
6:30 AM 5:46 PM
Waxing Gibbous, 83% visible
Pressure 30.40 in
Visibility 7.0 miles
Clouds Overcast 4800 ft
Windchill 19 °F
Dew Point 17 °F
Humidity 93%
Rainfall 0.00 in
Snow Depth Not available.
UV 0 out of 12
Pollen .50 out of 12
Air Quality Not available.
Flu Activity Not available.
METAR KC75 010835Z AUTO 00000KT 7SM OVC048 M07/M09 A3040 RMK AO2 T10751092

More Conditions Fewer Conditions

Pressure 30.40 in
Visibility 7.0 miles
Clouds Overcast 4800 ft
Windchill 19 °F
Dew Point 17 °F
Humidity 93%
Rainfall 0.00 in
Snow Depth Not available.
UV 0 out of 12
Pollen .50 out of 12
Air Quality Not available.
Flu Activity Not available.
METAR KC75 010835Z AUTO 00000KT 7SM OVC048 M07/M09 A3040 RMK AO2 T10751092

More Conditions Fewer Conditions

10-Day Weather Forecast

Almanac

Astronomy

Mar. 01, 2015 Rise Set
Actual Time
Civil Twilight
Nautical Twilight
Astronomical Twilight
Moon
Length of Visible Light
Length of Day
Tomorrow will be .
, % of the Moon is Illuminated

Today's Extremes

State Highs State Lows

Community

WunderPhotos

Upload Photos

1,801,350 photos uploaded!

WunderBlogs® & News

Nearby

Air Quality

  Air Quality AQ Index Pollutant
Not available.

Snow Depth

Station Depth Elevation

Earthquake Activity

City Distance Mag. Time & Date
Minimum magnitude displayed is 2.5.

Coastal Water Temperatures

Place Temperature

Nearby Weather Stations